sensor_id;sensor_type;location;lat;lon;timestamp;P1;durP1;ratioP1;P2;durP2;ratioP2
24102;SDS011;12278;53.058;9.028;2023-09-19T00:01:13;5.25;;;3.25;;
24102;SDS011;12278;53.058;9.028;2023-09-19T00:05:14;4.40;;;3.58;;
24102;SDS011;12278;53.058;9.028;2023-09-19T00:09:15;4.28;;;3.05;;
24102;SDS011;12278;53.058;9.028;2023-09-19T00:13:15;5.03;;;3.42;;
24102;SDS011;12278;53.058;9.028;2023-09-19T00:17:16;5.38;;;3.13;;
24102;SDS011;12278;53.058;9.028;2023-09-19T00:21:17;5.95;;;3.28;;
24102;SDS011;12278;53.058;9.028;2023-09-19T00:25:19;4.65;;;3.20;;
24102;SDS011;12278;53.058;9.028;2023-09-19T00:29:21;3.72;;;2.85;;
24102;SDS011;12278;53.058;9.028;2023-09-19T00:33:23;3.85;;;3.33;;
24102;SDS011;12278;53.058;9.028;2023-09-19T00:37:24;5.47;;;3.40;;
24102;SDS011;12278;53.058;9.028;2023-09-19T00:41:25;5.40;;;3.83;;
24102;SDS011;12278;53.058;9.028;2023-09-19T00:45:26;6.15;;;3.53;;
24102;SDS011;12278;53.058;9.028;2023-09-19T00:49:26;5.25;;;3.08;;
24102;SDS011;12278;53.058;9.028;2023-09-19T00:53:27;4.50;;;3.17;;
24102;SDS011;12278;53.058;9.028;2023-09-19T00:57:31;6.93;;;2.88;;
24102;SDS011;12278;53.058;9.028;2023-09-19T01:01:32;3.78;;;3.22;;
24102;SDS011;12278;53.058;9.028;2023-09-19T01:05:33;6.10;;;2.95;;
24102;SDS011;12278;53.058;9.028;2023-09-19T01:09:34;4.20;;;2.90;;
24102;SDS011;12278;53.058;9.028;2023-09-19T01:13:39;7.18;;;3.40;;
24102;SDS011;12278;53.058;9.028;2023-09-19T01:26:24;7.10;;;3.60;;
24102;SDS011;12278;53.058;9.028;2023-09-19T01:30:39;8.88;;;3.08;;
24102;SDS011;12278;53.058;9.028;2023-09-19T01:35:04;5.85;;;2.47;;
24102;SDS011;12278;53.058;9.028;2023-09-19T01:39:10;2.90;;;2.58;;
24102;SDS011;12278;53.058;9.028;2023-09-19T01:47:23;3.72;;;1.30;;
24102;SDS011;12278;53.058;9.028;2023-09-19T01:56:07;3.63;;;1.30;;
24102;SDS011;12278;53.058;9.028;2023-09-19T02:00:12;2.80;;;1.25;;
24102;SDS011;12278;53.058;9.028;2023-09-19T02:04:17;1.50;;;1.40;;
24102;SDS011;12278;53.058;9.028;2023-09-19T02:08:18;1.60;;;1.27;;
24102;SDS011;12278;53.058;9.028;2023-09-19T02:12:20;3.40;;;1.77;;
24102;SDS011;12278;53.058;9.028;2023-09-19T02:16:21;1.98;;;1.33;;
24102;SDS011;12278;53.058;9.028;2023-09-19T02:20:22;2.08;;;1.45;;
24102;SDS011;12278;53.058;9.028;2023-09-19T02:24:22;5.22;;;1.65;;
24102;SDS011;12278;53.058;9.028;2023-09-19T02:28:26;2.92;;;1.50;;
24102;SDS011;12278;53.058;9.028;2023-09-19T02:32:31;2.13;;;0.98;;
24102;SDS011;12278;53.058;9.028;2023-09-19T02:36:36;2.67;;;1.40;;
24102;SDS011;12278;53.058;9.028;2023-09-19T02:40:36;2.00;;;1.48;;
24102;SDS011;12278;53.058;9.028;2023-09-19T02:44:37;6.20;;;1.88;;
24102;SDS011;12278;53.058;9.028;2023-09-19T02:48:38;1.35;;;0.82;;
24102;SDS011;12278;53.058;9.028;2023-09-19T02:52:40;4.03;;;2.00;;
24102;SDS011;12278;53.058;9.028;2023-09-19T02:56:43;2.22;;;1.52;;
24102;SDS011;12278;53.058;9.028;2023-09-19T03:00:44;6.18;;;1.88;;
24102;SDS011;12278;53.058;9.028;2023-09-19T03:04:47;2.80;;;1.75;;
24102;SDS011;12278;53.058;9.028;2023-09-19T03:08:49;3.60;;;1.40;;
24102;SDS011;12278;53.058;9.028;2023-09-19T03:12:51;3.30;;;1.73;;
24102;SDS011;12278;53.058;9.028;2023-09-19T03:16:52;3.58;;;1.83;;
24102;SDS011;12278;53.058;9.028;2023-09-19T03:20:53;3.28;;;1.60;;
24102;SDS011;12278;53.058;9.028;2023-09-19T03:24:55;7.55;;;1.85;;
24102;SDS011;12278;53.058;9.028;2023-09-19T03:28:55;6.13;;;2.00;;
24102;SDS011;12278;53.058;9.028;2023-09-19T03:32:56;2.53;;;1.70;;
24102;SDS011;12278;53.058;9.028;2023-09-19T03:36:56;6.13;;;1.83;;
24102;SDS011;12278;53.058;9.028;2023-09-19T03:40:57;2.33;;;1.35;;
24102;SDS011;12278;53.058;9.028;2023-09-19T03:44:58;6.20;;;2.30;;
24102;SDS011;12278;53.058;9.028;2023-09-19T03:49:00;3.58;;;1.88;;
24102;SDS011;12278;53.058;9.028;2023-09-19T03:53:01;5.20;;;1.70;;
24102;SDS011;12278;53.058;9.028;2023-09-19T03:57:02;4.32;;;2.35;;
24102;SDS011;12278;53.058;9.028;2023-09-19T04:01:05;4.13;;;2.10;;
24102;SDS011;12278;53.058;9.028;2023-09-19T04:05:06;6.10;;;2.38;;
24102;SDS011;12278;53.058;9.028;2023-09-19T04:09:07;8.63;;;2.22;;
24102;SDS011;12278;53.058;9.028;2023-09-19T04:13:08;4.40;;;2.50;;
24102;SDS011;12278;53.058;9.028;2023-09-19T04:17:08;6.05;;;2.80;;
24102;SDS011;12278;53.058;9.028;2023-09-19T04:21:10;5.22;;;2.20;;
24102;SDS011;12278;53.058;9.028;2023-09-19T04:25:10;6.35;;;2.67;;
24102;SDS011;12278;53.058;9.028;2023-09-19T04:29:11;5.90;;;2.38;;
24102;SDS011;12278;53.058;9.028;2023-09-19T04:33:14;10.10;;;2.53;;
24102;SDS011;12278;53.058;9.028;2023-09-19T04:37:14;6.03;;;2.63;;
24102;SDS011;12278;53.058;9.028;2023-09-19T04:41:15;7.45;;;3.47;;
24102;SDS011;12278;53.058;9.028;2023-09-19T04:45:15;5.07;;;2.88;;
24102;SDS011;12278;53.058;9.028;2023-09-19T04:49:16;6.05;;;2.65;;
24102;SDS011;12278;53.058;9.028;2023-09-19T04:53:18;7.13;;;2.75;;
24102;SDS011;12278;53.058;9.028;2023-09-19T04:57:21;4.55;;;2.22;;
24102;SDS011;12278;53.058;9.028;2023-09-19T05:01:22;7.47;;;2.42;;
24102;SDS011;12278;53.058;9.028;2023-09-19T05:05:23;6.82;;;2.92;;
24102;SDS011;12278;53.058;9.028;2023-09-19T05:09:25;4.38;;;2.40;;
24102;SDS011;12278;53.058;9.028;2023-09-19T05:13:25;8.05;;;2.40;;
24102;SDS011;12278;53.058;9.028;2023-09-19T05:17:27;3.03;;;2.35;;
24102;SDS011;12278;53.058;9.028;2023-09-19T05:21:27;5.40;;;2.15;;
24102;SDS011;12278;53.058;9.028;2023-09-19T05:25:33;8.10;;;2.42;;
24102;SDS011;12278;53.058;9.028;2023-09-19T05:29:39;4.78;;;2.40;;
24102;SDS011;12278;53.058;9.028;2023-09-19T05:33:41;8.05;;;3.00;;
24102;SDS011;12278;53.058;9.028;2023-09-19T05:37:42;7.25;;;2.65;;
24102;SDS011;12278;53.058;9.028;2023-09-19T05:41:44;8.35;;;2.92;;
24102;SDS011;12278;53.058;9.028;2023-09-19T05:45:45;6.95;;;2.53;;
24102;SDS011;12278;53.058;9.028;2023-09-19T05:49:45;7.30;;;2.25;;
24102;SDS011;12278;53.058;9.028;2023-09-19T05:57:51;5.63;;;2.85;;
24102;SDS011;12278;53.058;9.028;2023-09-19T06:01:52;10.48;;;2.88;;
24102;SDS011;12278;53.058;9.028;2023-09-19T06:05:53;6.55;;;2.55;;
24102;SDS011;12278;53.058;9.028;2023-09-19T06:09:57;11.55;;;3.60;;
24102;SDS011;12278;53.058;9.028;2023-09-19T06:13:57;8.50;;;2.75;;
24102;SDS011;12278;53.058;9.028;2023-09-19T06:18:00;5.55;;;2.72;;
24102;SDS011;12278;53.058;9.028;2023-09-19T06:22:02;9.88;;;2.70;;
24102;SDS011;12278;53.058;9.028;2023-09-19T06:26:03;9.93;;;3.15;;
24102;SDS011;12278;53.058;9.028;2023-09-19T06:30:07;8.43;;;3.17;;
24102;SDS011;12278;53.058;9.028;2023-09-19T06:34:08;9.52;;;2.97;;
24102;SDS011;12278;53.058;9.028;2023-09-19T06:38:09;9.25;;;2.83;;
24102;SDS011;12278;53.058;9.028;2023-09-19T06:42:13;6.70;;;2.88;;
24102;SDS011;12278;53.058;9.028;2023-09-19T06:46:13;8.60;;;3.35;;
24102;SDS011;12278;53.058;9.028;2023-09-19T06:50:16;8.80;;;2.70;;
24102;SDS011;12278;53.058;9.028;2023-09-19T06:54:19;6.03;;;2.95;;
24102;SDS011;12278;53.058;9.028;2023-09-19T06:58:19;10.48;;;2.97;;
24102;SDS011;12278;53.058;9.028;2023-09-19T07:02:20;5.28;;;2.72;;
24102;SDS011;12278;53.058;9.028;2023-09-19T07:06:22;8.73;;;3.37;;
24102;SDS011;12278;53.058;9.028;2023-09-19T07:10:22;9.52;;;2.65;;
24102;SDS011;12278;53.058;9.028;2023-09-19T07:14:27;7.57;;;2.58;;
24102;SDS011;12278;53.058;9.028;2023-09-19T07:26:29;8.60;;;2.55;;
24102;SDS011;12278;53.058;9.028;2023-09-19T07:30:31;5.45;;;1.90;;
24102;SDS011;12278;53.058;9.028;2023-09-19T07:34:31;7.95;;;2.30;;
24102;SDS011;12278;53.058;9.028;2023-09-19T07:38:32;5.57;;;1.92;;
24102;SDS011;12278;53.058;9.028;2023-09-19T07:42:35;5.45;;;1.90;;
24102;SDS011;12278;53.058;9.028;2023-09-19T07:46:39;6.65;;;2.22;;
24102;SDS011;12278;53.058;9.028;2023-09-19T07:50:39;8.45;;;2.20;;
24102;SDS011;12278;53.058;9.028;2023-09-19T07:54:43;4.68;;;2.33;;
24102;SDS011;12278;53.058;9.028;2023-09-19T07:58:44;6.40;;;2.03;;
24102;SDS011;12278;53.058;9.028;2023-09-19T08:02:45;7.65;;;2.17;;
24102;SDS011;12278;53.058;9.028;2023-09-19T08:06:45;7.60;;;2.30;;
24102;SDS011;12278;53.058;9.028;2023-09-19T08:10:46;9.93;;;2.67;;
24102;SDS011;12278;53.058;9.028;2023-09-19T08:14:56;7.55;;;2.20;;
24102;SDS011;12278;53.058;9.028;2023-09-19T08:18:57;7.03;;;2.17;;
24102;SDS011;12278;53.058;9.028;2023-09-19T08:22:57;7.20;;;2.65;;
24102;SDS011;12278;53.058;9.028;2023-09-19T08:26:58;7.03;;;2.70;;
24102;SDS011;12278;53.058;9.028;2023-09-19T08:31:05;4.40;;;2.13;;
24102;SDS011;12278;53.058;9.028;2023-09-19T08:35:09;7.32;;;2.15;;
24102;SDS011;12278;53.058;9.028;2023-09-19T08:39:13;8.73;;;2.20;;
24102;SDS011;12278;53.058;9.028;2023-09-19T08:43:14;5.22;;;2.33;;
24102;SDS011;12278;53.058;9.028;2023-09-19T08:47:15;8.10;;;2.35;;
24102;SDS011;12278;53.058;9.028;2023-09-19T08:51:26;6.38;;;2.20;;
24102;SDS011;12278;53.058;9.028;2023-09-19T08:55:30;4.68;;;2.15;;
24102;SDS011;12278;53.058;9.028;2023-09-19T08:59:33;5.82;;;2.42;;
24102;SDS011;12278;53.058;9.028;2023-09-19T09:03:36;7.00;;;1.75;;
24102;SDS011;12278;53.058;9.028;2023-09-19T09:07:42;5.63;;;1.65;;
24102;SDS011;12278;53.058;9.028;2023-09-19T09:11:44;8.65;;;2.38;;
24102;SDS011;12278;53.058;9.028;2023-09-19T09:15:45;4.25;;;2.17;;
24102;SDS011;12278;53.058;9.028;2023-09-19T09:19:46;6.07;;;1.80;;
24102;SDS011;12278;53.058;9.028;2023-09-19T09:23:48;7.18;;;2.33;;
24102;SDS011;12278;53.058;9.028;2023-09-19T09:28:00;6.97;;;2.00;;
24102;SDS011;12278;53.058;9.028;2023-09-19T09:32:15;4.05;;;2.10;;
24102;SDS011;12278;53.058;9.028;2023-09-19T09:36:41;7.70;;;2.25;;
24102;SDS011;12278;53.058;9.028;2023-09-19T09:40:48;3.20;;;1.50;;
24102;SDS011;12278;53.058;9.028;2023-09-19T09:49:32;8.20;;;2.30;;
24102;SDS011;12278;53.058;9.028;2023-09-19T09:53:36;8.73;;;2.00;;
24102;SDS011;12278;53.058;9.028;2023-09-19T09:57:37;4.40;;;1.50;;
24102;SDS011;12278;53.058;9.028;2023-09-19T10:01:48;4.00;;;1.52;;
24102;SDS011;12278;53.058;9.028;2023-09-19T10:05:53;4.85;;;1.95;;
24102;SDS011;12278;53.058;9.028;2023-09-19T10:09:55;6.20;;;1.65;;
24102;SDS011;12278;53.058;9.028;2023-09-19T10:14:04;7.10;;;1.98;;
24102;SDS011;12278;53.058;9.028;2023-09-19T10:18:10;4.10;;;1.73;;
24102;SDS011;12278;53.058;9.028;2023-09-19T10:22:17;4.03;;;1.63;;
24102;SDS011;12278;53.058;9.028;2023-09-19T10:26:22;5.40;;;1.63;;
24102;SDS011;12278;53.058;9.028;2023-09-19T10:30:25;6.47;;;2.05;;
24102;SDS011;12278;53.058;9.028;2023-09-19T10:34:28;10.23;;;2.38;;
24102;SDS011;12278;53.058;9.028;2023-09-19T10:38:30;5.53;;;1.98;;
24102;SDS011;12278;53.058;9.028;2023-09-19T10:42:33;5.60;;;2.28;;
24102;SDS011;12278;53.058;9.028;2023-09-19T10:46:38;4.22;;;1.70;;
24102;SDS011;12278;53.058;9.028;2023-09-19T10:54:51;5.70;;;2.05;;
24102;SDS011;12278;53.058;9.028;2023-09-19T10:59:18;6.72;;;2.33;;
24102;SDS011;12278;53.058;9.028;2023-09-19T11:03:19;4.53;;;1.75;;
24102;SDS011;12278;53.058;9.028;2023-09-19T11:07:29;4.60;;;2.38;;
24102;SDS011;12278;53.058;9.028;2023-09-19T11:24:49;4.78;;;1.90;;
24102;SDS011;12278;53.058;9.028;2023-09-19T11:28:28;4.38;;;2.55;;
24102;SDS011;12278;53.058;9.028;2023-09-19T11:41:56;9.13;;;2.85;;
24102;SDS011;12278;53.058;9.028;2023-09-19T11:49:50;7.28;;;2.22;;
24102;SDS011;12278;53.058;9.028;2023-09-19T11:53:54;6.15;;;2.38;;
24102;SDS011;12278;53.058;9.028;2023-09-19T11:57:56;3.20;;;1.67;;
24102;SDS011;12278;53.058;9.028;2023-09-19T12:01:57;5.63;;;2.20;;
24102;SDS011;12278;53.058;9.028;2023-09-19T12:06:10;7.03;;;2.58;;
24102;SDS011;12278;53.058;9.028;2023-09-19T12:10:14;11.35;;;2.33;;
24102;SDS011;12278;53.058;9.028;2023-09-19T12:14:21;3.80;;;1.70;;
24102;SDS011;12278;53.058;9.028;2023-09-19T12:18:26;3.95;;;1.90;;
24102;SDS011;12278;53.058;9.028;2023-09-19T12:22:38;5.68;;;3.03;;
24102;SDS011;12278;53.058;9.028;2023-09-19T12:26:46;6.38;;;2.15;;
24102;SDS011;12278;53.058;9.028;2023-09-19T12:30:48;6.45;;;2.30;;
24102;SDS011;12278;53.058;9.028;2023-09-19T12:34:52;5.15;;;1.77;;
24102;SDS011;12278;53.058;9.028;2023-09-19T12:38:54;3.85;;;2.22;;
24102;SDS011;12278;53.058;9.028;2023-09-19T12:42:57;5.18;;;2.03;;
24102;SDS011;12278;53.058;9.028;2023-09-19T12:46:59;9.23;;;2.00;;
24102;SDS011;12278;53.058;9.028;2023-09-19T12:51:02;6.40;;;2.13;;
24102;SDS011;12278;53.058;9.028;2023-09-19T12:55:07;5.63;;;2.17;;
24102;SDS011;12278;53.058;9.028;2023-09-19T12:59:19;6.28;;;2.28;;
24102;SDS011;12278;53.058;9.028;2023-09-19T13:03:31;7.70;;;2.17;;
24102;SDS011;12278;53.058;9.028;2023-09-19T13:07:41;10.20;;;2.20;;
24102;SDS011;12278;53.058;9.028;2023-09-19T13:11:47;11.80;;;2.58;;
24102;SDS011;12278;53.058;9.028;2023-09-19T13:15:53;8.07;;;2.20;;
24102;SDS011;12278;53.058;9.028;2023-09-19T13:28:18;5.65;;;3.03;;
24102;SDS011;12278;53.058;9.028;2023-09-19T13:32:18;8.15;;;2.47;;
24102;SDS011;12278;53.058;9.028;2023-09-19T13:36:19;6.10;;;2.67;;
24102;SDS011;12278;53.058;9.028;2023-09-19T13:40:20;6.47;;;2.22;;
24102;SDS011;12278;53.058;9.028;2023-09-19T13:44:20;6.47;;;2.42;;
24102;SDS011;12278;53.058;9.028;2023-09-19T13:48:21;5.97;;;1.90;;
24102;SDS011;12278;53.058;9.028;2023-09-19T13:52:22;8.07;;;3.05;;
24102;SDS011;12278;53.058;9.028;2023-09-19T13:56:23;3.85;;;2.42;;
24102;SDS011;12278;53.058;9.028;2023-09-19T14:00:24;8.82;;;2.20;;
24102;SDS011;12278;53.058;9.028;2023-09-19T14:04:25;5.75;;;2.30;;
24102;SDS011;12278;53.058;9.028;2023-09-19T14:08:27;6.03;;;2.35;;
24102;SDS011;12278;53.058;9.028;2023-09-19T14:12:28;5.70;;;2.00;;
24102;SDS011;12278;53.058;9.028;2023-09-19T14:16:28;7.07;;;2.60;;
24102;SDS011;12278;53.058;9.028;2023-09-19T14:20:31;7.32;;;2.97;;
24102;SDS011;12278;53.058;9.028;2023-09-19T14:24:31;5.63;;;2.40;;
24102;SDS011;12278;53.058;9.028;2023-09-19T14:28:32;3.95;;;2.35;;
24102;SDS011;12278;53.058;9.028;2023-09-19T14:32:36;8.02;;;2.13;;
24102;SDS011;12278;53.058;9.028;2023-09-19T14:36:38;5.32;;;1.73;;
24102;SDS011;12278;53.058;9.028;2023-09-19T14:40:38;6.22;;;1.80;;
24102;SDS011;12278;53.058;9.028;2023-09-19T14:44:39;6.32;;;1.95;;
24102;SDS011;12278;53.058;9.028;2023-09-19T14:48:40;6.35;;;1.90;;
24102;SDS011;12278;53.058;9.028;2023-09-19T14:52:41;4.38;;;1.90;;
24102;SDS011;12278;53.058;9.028;2023-09-19T14:56:41;5.07;;;1.92;;
24102;SDS011;12278;53.058;9.028;2023-09-19T15:00:42;2.72;;;1.70;;
24102;SDS011;12278;53.058;9.028;2023-09-19T15:04:45;5.22;;;2.10;;
24102;SDS011;12278;53.058;9.028;2023-09-19T15:08:47;4.05;;;1.67;;
24102;SDS011;12278;53.058;9.028;2023-09-19T15:12:48;11.75;;;2.55;;
24102;SDS011;12278;53.058;9.028;2023-09-19T15:16:49;5.97;;;1.75;;
24102;SDS011;12278;53.058;9.028;2023-09-19T15:20:49;6.28;;;2.17;;
24102;SDS011;12278;53.058;9.028;2023-09-19T15:24:50;7.15;;;2.17;;
24102;SDS011;12278;53.058;9.028;2023-09-19T15:28:51;3.50;;;1.52;;
24102;SDS011;12278;53.058;9.028;2023-09-19T15:32:54;6.40;;;3.28;;
24102;SDS011;12278;53.058;9.028;2023-09-19T15:36:55;7.07;;;2.10;;
24102;SDS011;12278;53.058;9.028;2023-09-19T15:40:55;9.40;;;2.58;;
24102;SDS011;12278;53.058;9.028;2023-09-19T15:44:57;7.38;;;2.00;;
24102;SDS011;12278;53.058;9.028;2023-09-19T15:48:59;4.05;;;2.05;;
24102;SDS011;12278;53.058;9.028;2023-09-19T15:53:04;8.98;;;1.70;;
24102;SDS011;12278;53.058;9.028;2023-09-19T15:57:04;5.10;;;2.13;;
24102;SDS011;12278;53.058;9.028;2023-09-19T16:01:05;3.13;;;2.00;;
24102;SDS011;12278;53.058;9.028;2023-09-19T16:05:09;4.57;;;2.22;;
24102;SDS011;12278;53.058;9.028;2023-09-19T16:09:11;6.88;;;2.35;;
24102;SDS011;12278;53.058;9.028;2023-09-19T16:13:11;4.60;;;1.70;;
24102;SDS011;12278;53.058;9.028;2023-09-19T16:17:13;4.82;;;1.80;;
24102;SDS011;12278;53.058;9.028;2023-09-19T16:21:14;3.05;;;1.75;;
24102;SDS011;12278;53.058;9.028;2023-09-19T16:25:17;7.10;;;2.28;;
24102;SDS011;12278;53.058;9.028;2023-09-19T16:29:17;5.88;;;1.98;;
24102;SDS011;12278;53.058;9.028;2023-09-19T16:33:18;3.78;;;2.08;;
24102;SDS011;12278;53.058;9.028;2023-09-19T16:37:18;5.05;;;1.80;;
24102;SDS011;12278;53.058;9.028;2023-09-19T16:41:19;3.10;;;1.77;;
24102;SDS011;12278;53.058;9.028;2023-09-19T16:45:20;7.30;;;2.00;;
24102;SDS011;12278;53.058;9.028;2023-09-19T16:49:22;8.30;;;2.55;;
24102;SDS011;12278;53.058;9.028;2023-09-19T16:53:22;5.97;;;1.85;;
24102;SDS011;12278;53.058;9.028;2023-09-19T16:57:23;5.22;;;2.13;;
24102;SDS011;12278;53.058;9.028;2023-09-19T17:01:24;6.00;;;2.08;;
24102;SDS011;12278;53.058;9.028;2023-09-19T17:05:24;7.97;;;2.17;;
24102;SDS011;12278;53.058;9.028;2023-09-19T17:09:26;2.47;;;1.40;;
24102;SDS011;12278;53.058;9.028;2023-09-19T17:13:27;2.73;;;1.53;;
24102;SDS011;12278;53.058;9.028;2023-09-19T17:17:30;5.10;;;1.55;;
24102;SDS011;12278;53.058;9.028;2023-09-19T17:21:31;4.63;;;1.80;;
24102;SDS011;12278;53.058;9.028;2023-09-19T17:25:31;5.90;;;1.80;;
24102;SDS011;12278;53.058;9.028;2023-09-19T17:29:33;2.58;;;1.60;;
24102;SDS011;12278;53.058;9.028;2023-09-19T17:33:33;4.20;;;1.88;;
24102;SDS011;12278;53.058;9.028;2023-09-19T17:37:34;3.88;;;1.77;;
24102;SDS011;12278;53.058;9.028;2023-09-19T17:41:35;3.03;;;1.65;;
24102;SDS011;12278;53.058;9.028;2023-09-19T17:45:35;2.72;;;1.52;;
24102;SDS011;12278;53.058;9.028;2023-09-19T17:49:36;4.03;;;1.52;;
24102;SDS011;12278;53.058;9.028;2023-09-19T17:53:37;4.07;;;1.77;;
24102;SDS011;12278;53.058;9.028;2023-09-19T17:57:39;1.58;;;1.00;;
24102;SDS011;12278;53.058;9.028;2023-09-19T18:01:41;3.33;;;1.25;;
24102;SDS011;12278;53.058;9.028;2023-09-19T18:05:44;5.72;;;1.60;;
24102;SDS011;12278;53.058;9.028;2023-09-19T18:09:45;7.15;;;1.48;;
24102;SDS011;12278;53.058;9.028;2023-09-19T18:13:47;3.35;;;1.45;;
24102;SDS011;12278;53.058;9.028;2023-09-19T18:17:52;3.88;;;1.30;;
24102;SDS011;12278;53.058;9.028;2023-09-19T18:21:53;1.63;;;1.23;;
24102;SDS011;12278;53.058;9.028;2023-09-19T18:25:58;5.95;;;2.30;;
24102;SDS011;12278;53.058;9.028;2023-09-19T18:30:00;2.85;;;1.63;;
24102;SDS011;12278;53.058;9.028;2023-09-19T18:34:01;2.38;;;1.27;;
24102;SDS011;12278;53.058;9.028;2023-09-19T18:38:02;1.75;;;1.17;;
24102;SDS011;12278;53.058;9.028;2023-09-19T18:42:03;2.10;;;1.35;;
24102;SDS011;12278;53.058;9.028;2023-09-19T18:46:04;6.55;;;1.40;;
24102;SDS011;12278;53.058;9.028;2023-09-19T18:50:08;2.42;;;1.27;;
24102;SDS011;12278;53.058;9.028;2023-09-19T18:54:10;1.55;;;0.88;;
24102;SDS011;12278;53.058;9.028;2023-09-19T18:58:13;1.83;;;1.42;;
24102;SDS011;12278;53.058;9.028;2023-09-19T19:02:14;2.58;;;1.50;;
24102;SDS011;12278;53.058;9.028;2023-09-19T19:06:15;1.92;;;1.05;;
24102;SDS011;12278;53.058;9.028;2023-09-19T19:10:16;5.00;;;1.45;;
24102;SDS011;12278;53.058;9.028;2023-09-19T19:14:20;3.05;;;1.42;;
24102;SDS011;12278;53.058;9.028;2023-09-19T19:18:22;1.67;;;1.10;;
24102;SDS011;12278;53.058;9.028;2023-09-19T19:22:28;3.42;;;1.15;;
24102;SDS011;12278;53.058;9.028;2023-09-19T19:26:29;1.85;;;1.23;;
24102;SDS011;12278;53.058;9.028;2023-09-19T19:30:31;2.03;;;1.40;;
24102;SDS011;12278;53.058;9.028;2023-09-19T19:34:32;4.40;;;1.23;;
24102;SDS011;12278;53.058;9.028;2023-09-19T19:38:33;2.45;;;1.20;;
24102;SDS011;12278;53.058;9.028;2023-09-19T19:42:37;3.25;;;1.25;;
24102;SDS011;12278;53.058;9.028;2023-09-19T19:46:37;1.80;;;1.10;;
24102;SDS011;12278;53.058;9.028;2023-09-19T19:50:38;5.70;;;1.33;;
24102;SDS011;12278;53.058;9.028;2023-09-19T19:54:41;2.60;;;1.42;;
24102;SDS011;12278;53.058;9.028;2023-09-19T19:58:42;1.58;;;1.15;;
24102;SDS011;12278;53.058;9.028;2023-09-19T20:02:43;5.55;;;1.52;;
24102;SDS011;12278;53.058;9.028;2023-09-19T20:06:45;1.77;;;1.23;;
24102;SDS011;12278;53.058;9.028;2023-09-19T20:10:46;3.05;;;1.17;;
24102;SDS011;12278;53.058;9.028;2023-09-19T20:14:46;3.25;;;1.70;;
24102;SDS011;12278;53.058;9.028;2023-09-19T20:18:47;1.63;;;1.30;;
24102;SDS011;12278;53.058;9.028;2023-09-19T20:22:48;3.30;;;1.25;;
24102;SDS011;12278;53.058;9.028;2023-09-19T20:26:49;3.40;;;1.13;;
24102;SDS011;12278;53.058;9.028;2023-09-19T20:30:49;6.47;;;1.55;;
24102;SDS011;12278;53.058;9.028;2023-09-19T20:34:50;6.10;;;1.50;;
24102;SDS011;12278;53.058;9.028;2023-09-19T20:38:50;3.85;;;1.50;;
24102;SDS011;12278;53.058;9.028;2023-09-19T20:42:53;3.10;;;1.20;;
24102;SDS011;12278;53.058;9.028;2023-09-19T20:46:54;7.57;;;1.70;;
24102;SDS011;12278;53.058;9.028;2023-09-19T20:50:55;4.45;;;1.95;;
24102;SDS011;12278;53.058;9.028;2023-09-19T20:54:55;2.45;;;0.85;;
24102;SDS011;12278;53.058;9.028;2023-09-19T20:58:56;1.77;;;1.25;;
24102;SDS011;12278;53.058;9.028;2023-09-19T21:02:57;2.67;;;1.27;;
24102;SDS011;12278;53.058;9.028;2023-09-19T21:06:58;3.33;;;1.55;;
24102;SDS011;12278;53.058;9.028;2023-09-19T21:10:59;4.35;;;1.45;;
24102;SDS011;12278;53.058;9.028;2023-09-19T21:15:09;4.65;;;1.65;;
24102;SDS011;12278;53.058;9.028;2023-09-19T21:19:09;6.18;;;1.75;;
24102;SDS011;12278;53.058;9.028;2023-09-19T21:23:10;2.60;;;1.30;;
24102;SDS011;12278;53.058;9.028;2023-09-19T21:27:13;2.97;;;1.58;;
24102;SDS011;12278;53.058;9.028;2023-09-19T21:31:14;3.65;;;1.80;;
24102;SDS011;12278;53.058;9.028;2023-09-19T21:35:15;3.60;;;1.75;;
24102;SDS011;12278;53.058;9.028;2023-09-19T21:39:16;3.70;;;1.70;;
24102;SDS011;12278;53.058;9.028;2023-09-19T21:43:17;4.25;;;1.52;;
24102;SDS011;12278;53.058;9.028;2023-09-19T21:47:18;2.42;;;1.20;;
24102;SDS011;12278;53.058;9.028;2023-09-19T21:51:19;5.90;;;1.92;;
24102;SDS011;12278;53.058;9.028;2023-09-19T21:55:27;3.08;;;1.40;;
24102;SDS011;12278;53.058;9.028;2023-09-19T21:59:28;3.58;;;1.70;;
24102;SDS011;12278;53.058;9.028;2023-09-19T22:03:29;2.50;;;1.50;;
24102;SDS011;12278;53.058;9.028;2023-09-19T22:07:31;1.55;;;1.25;;
24102;SDS011;12278;53.058;9.028;2023-09-19T22:11:31;1.50;;;1.40;;
24102;SDS011;12278;53.058;9.028;2023-09-19T22:15:34;5.60;;;1.50;;
24102;SDS011;12278;53.058;9.028;2023-09-19T22:19:42;2.60;;;0.93;;
24102;SDS011;12278;53.058;9.028;2023-09-19T22:23:43;3.95;;;1.17;;
24102;SDS011;12278;53.058;9.028;2023-09-19T22:27:45;4.30;;;1.38;;
24102;SDS011;12278;53.058;9.028;2023-09-19T22:31:46;2.72;;;1.60;;
24102;SDS011;12278;53.058;9.028;2023-09-19T22:35:47;3.22;;;1.55;;
24102;SDS011;12278;53.058;9.028;2023-09-19T22:39:50;5.30;;;1.30;;
24102;SDS011;12278;53.058;9.028;2023-09-19T22:43:51;5.25;;;1.30;;
24102;SDS011;12278;53.058;9.028;2023-09-19T22:47:55;1.92;;;1.25;;
24102;SDS011;12278;53.058;9.028;2023-09-19T22:51:57;4.05;;;1.58;;
24102;SDS011;12278;53.058;9.028;2023-09-19T22:55:59;3.38;;;1.58;;
24102;SDS011;12278;53.058;9.028;2023-09-19T23:00:01;2.15;;;1.50;;
24102;SDS011;12278;53.058;9.028;2023-09-19T23:04:03;3.88;;;1.40;;
24102;SDS011;12278;53.058;9.028;2023-09-19T23:08:10;2.60;;;1.27;;
24102;SDS011;12278;53.058;9.028;2023-09-19T23:12:12;1.50;;;1.15;;
24102;SDS011;12278;53.058;9.028;2023-09-19T23:16:19;4.93;;;1.67;;
24102;SDS011;12278;53.058;9.028;2023-09-19T23:20:28;3.63;;;1.35;;
24102;SDS011;12278;53.058;9.028;2023-09-19T23:24:36;3.47;;;1.58;;
24102;SDS011;12278;53.058;9.028;2023-09-19T23:28:38;1.95;;;1.40;;
24102;SDS011;12278;53.058;9.028;2023-09-19T23:32:43;3.53;;;1.65;;
24102;SDS011;12278;53.058;9.028;2023-09-19T23:36:44;3.78;;;1.25;;
24102;SDS011;12278;53.058;9.028;2023-09-19T23:40:49;3.92;;;1.70;;
24102;SDS011;12278;53.058;9.028;2023-09-19T23:44:52;2.50;;;1.40;;
24102;SDS011;12278;53.058;9.028;2023-09-19T23:48:54;3.97;;;1.60;;
24102;SDS011;12278;53.058;9.028;2023-09-19T23:52:56;4.50;;;1.40;;
24102;SDS011;12278;53.058;9.028;2023-09-19T23:56:56;2.28;;;1.58;;
